createdAt,value
2023-04-20T00:01:04.146Z,42.03
2023-04-20T00:06:06.208Z,42.02
2023-04-20T00:11:08.063Z,43.93
2023-04-20T00:16:09.738Z,45.56
2023-04-20T00:21:11.314Z,47.09
2023-04-20T00:26:13.011Z,47.49
2023-04-20T00:31:16.093Z,47.92
2023-04-20T00:36:17.722Z,47.86
2023-04-20T00:41:19.313Z,47.96
2023-04-20T00:46:21.764Z,47.71
2023-04-20T00:51:23.741Z,47.93
2023-04-20T00:56:25.537Z,48.18
2023-04-20T01:01:27.233Z,47.67
2023-04-20T01:06:29.069Z,47.65
2023-04-20T01:11:31.977Z,47.62
2023-04-20T01:16:37.343Z,47.73
2023-04-20T01:21:39.593Z,47.96
2023-04-20T01:26:41.318Z,48.04
2023-04-20T01:31:43.047Z,48.18
2023-04-20T01:36:45.492Z,48.38
2023-04-20T01:41:47.167Z,48.39
2023-04-20T01:46:48.841Z,48.61
2023-04-20T01:51:50.533Z,48.58
2023-04-20T01:56:52.424Z,49.24
2023-04-20T02:01:55.282Z,49.63
2023-04-20T02:06:57.050Z,50.53
2023-04-20T02:11:58.690Z,50.77
2023-04-20T02:17:01.470Z,51.75
2023-04-20T02:22:03.528Z,52.18
2023-04-20T02:27:05.610Z,52.55
2023-04-20T02:32:08.772Z,52.54
2023-04-20T02:37:10.586Z,51.99
2023-04-20T02:42:12.261Z,52.08
2023-04-20T02:47:15.519Z,52.07
2023-04-20T02:52:17.310Z,51.53
2023-04-20T02:57:19.003Z,51.59
2023-04-20T03:02:21.192Z,50.77
2023-04-20T03:07:23.127Z,51.22
2023-04-20T03:12:26.185Z,51.46
2023-04-20T03:17:33.423Z,50.69
2023-04-20T03:22:35.208Z,50.64
2023-04-20T03:27:37.682Z,51.31
2023-04-20T03:32:45.199Z,51.24
2023-04-20T03:37:47.050Z,51.81
2023-04-20T03:42:48.694Z,52.33
2023-04-20T03:47:50.458Z,52.68
2023-04-20T03:52:52.091Z,52.23
2023-04-20T03:57:54.886Z,52.59
2023-04-20T04:02:57.296Z,53.19
2023-04-20T04:08:02.636Z,53.33
2023-04-20T04:13:05.000Z,53.78
2023-04-20T04:18:06.854Z,54.40
2023-04-20T04:23:17.025Z,55.16
2023-04-20T04:28:22.670Z,56.31
2023-04-20T04:33:34.731Z,56.90
2023-04-20T04:38:37.247Z,57.18
2023-04-20T04:43:41.907Z,57.79
2023-04-20T04:48:53.294Z,57.89
2023-04-20T04:53:55.187Z,59.48
2023-04-20T04:58:56.858Z,59.11
2023-04-20T05:03:58.725Z,59.29
2023-04-20T05:09:00.501Z,59.59
2023-04-20T05:14:03.440Z,59.98
2023-04-20T05:19:07.996Z,60.99
2023-04-20T05:24:09.873Z,62.61
2023-04-20T05:29:12.765Z,62.22
2023-04-20T05:34:14.524Z,62.61
2023-04-20T05:39:16.812Z,62.16
2023-04-20T05:44:18.748Z,61.56
2023-04-20T05:49:20.557Z,60.78
2023-04-20T05:54:26.702Z,59.34
2023-04-20T05:59:28.628Z,58.34
2023-04-20T06:04:30.810Z,57.34
2023-04-20T06:09:32.724Z,55.63
2023-04-20T06:14:34.373Z,53.87
2023-04-20T06:19:36.065Z,54.12
2023-04-20T06:24:38.752Z,51.56
2023-04-20T06:29:43.002Z,52.20
2023-04-20T06:34:44.647Z,52.62
2023-04-20T06:39:46.368Z,52.71
2023-04-20T06:44:48.031Z,53.54
2023-04-20T06:49:49.598Z,55.98
2023-04-20T06:54:51.231Z,56.48
2023-04-20T06:59:52.840Z,56.70
2023-04-20T07:05:01.017Z,57.37
2023-04-20T07:10:02.710Z,58.06
2023-04-20T07:15:05.859Z,56.17
2023-04-20T07:20:08.675Z,59.75
2023-04-20T07:25:13.980Z,57.00
2023-04-20T07:30:16.039Z,58.24
2023-04-20T07:35:17.634Z,59.25
2023-04-20T07:40:19.662Z,58.03
2023-04-20T07:45:21.899Z,56.18
2023-04-20T07:50:23.547Z,55.27
2023-04-20T07:55:25.158Z,53.83
2023-04-20T08:00:27.042Z,55.82
2023-04-20T08:05:28.973Z,53.87
2023-04-20T08:10:30.701Z,55.08
2023-04-20T08:15:32.351Z,59.35
2023-04-20T08:20:34.746Z,59.74
2023-04-20T08:25:39.835Z,61.06
2023-04-20T08:30:42.788Z,61.03
2023-04-20T08:35:44.498Z,65.09
2023-04-20T08:40:46.431Z,67.33
2023-04-20T08:45:51.792Z,69.04
2023-04-20T08:50:55.809Z,70.48
2023-04-20T08:55:58.010Z,72.01
2023-04-20T09:01:02.574Z,72.62
2023-04-20T09:06:06.451Z,70.65
2023-04-20T09:11:21.456Z,69.83
2023-04-20T09:16:23.097Z,71.72
2023-04-20T09:21:28.089Z,73.97
2023-04-20T09:26:34.501Z,73.08
2023-04-20T09:31:37.167Z,74.01
2023-04-20T09:36:43.792Z,74.95
2023-04-20T09:41:46.134Z,72.50
2023-04-20T09:46:47.762Z,73.05
2023-04-20T09:51:49.785Z,73.57
2023-04-20T09:56:56.901Z,75.33
2023-04-20T10:01:58.767Z,75.44
2023-04-20T10:07:06.050Z,75.77
2023-04-20T10:12:10.259Z,75.74
2023-04-20T10:17:11.997Z,71.95
2023-04-20T10:22:25.543Z,71.98
2023-04-20T10:27:28.035Z,72.29
2023-04-20T10:32:29.801Z,74.29
2023-04-20T10:37:32.239Z,71.82
2023-04-20T10:42:44.675Z,69.36
2023-04-20T10:47:46.328Z,69.57
2023-04-20T10:52:49.753Z,70.57
2023-04-20T10:57:52.075Z,70.60
2023-04-20T11:02:56.401Z,67.90
2023-04-20T11:08:02.398Z,67.54
2023-04-20T11:13:04.096Z,68.23
2023-04-20T11:18:11.365Z,68.02
2023-04-20T11:23:13.047Z,67.19
2023-04-20T11:28:14.654Z,66.26
2023-04-20T11:33:28.136Z,64.12
2023-04-20T11:38:34.582Z,65.18
2023-04-20T11:43:36.300Z,61.83
2023-04-20T11:48:37.982Z,61.49
2023-04-20T11:53:40.062Z,61.70
2023-04-20T11:58:41.947Z,58.97
2023-04-20T12:03:46.161Z,58.28
2023-04-20T12:08:49.381Z,58.01
2023-04-20T12:13:52.008Z,57.57
2023-04-20T12:18:53.934Z,57.11
2023-04-20T12:23:56.515Z,57.05
2023-04-20T12:28:58.292Z,56.24
2023-04-20T12:33:59.994Z,55.42
2023-04-20T12:39:01.746Z,56.37
2023-04-20T12:44:07.043Z,54.67
2023-04-20T12:49:11.786Z,55.58
2023-04-20T12:54:13.431Z,54.52
2023-04-20T12:59:15.110Z,56.50
2023-04-20T13:04:17.140Z,58.11
2023-04-20T13:09:19.057Z,57.46
2023-04-20T13:14:21.209Z,56.14
2023-04-20T13:19:23.053Z,56.24
2023-04-20T13:24:24.812Z,58.70
2023-04-20T13:29:28.092Z,57.71
2023-04-20T13:34:29.804Z,56.59
2023-04-20T13:39:31.597Z,58.84
2023-04-20T13:44:33.729Z,60.97
2023-04-20T13:49:38.164Z,60.83
2023-04-20T13:54:39.859Z,60.69
2023-04-20T13:59:42.023Z,60.48
2023-04-20T14:04:43.838Z,58.83
2023-04-20T14:09:46.129Z,60.17
2023-04-20T14:14:48.476Z,59.59
2023-04-20T14:19:50.117Z,56.86
2023-04-20T14:24:51.789Z,55.25
2023-04-20T14:29:53.427Z,54.87
2023-04-20T14:34:55.066Z,54.73
2023-04-20T14:39:57.019Z,54.57
2023-04-20T14:44:58.626Z,52.93
2023-04-20T14:50:00.268Z,51.52
2023-04-20T14:55:02.361Z,50.98
2023-04-20T15:00:06.437Z,52.07
2023-04-20T15:05:10.617Z,52.94
2023-04-20T15:10:13.004Z,51.65
2023-04-20T15:15:16.584Z,52.64
2023-04-20T15:20:18.704Z,53.11
2023-04-20T15:25:20.512Z,52.17
2023-04-20T15:30:22.238Z,52.77
2023-04-20T15:35:23.842Z,49.68
2023-04-20T15:40:27.497Z,49.19
2023-04-20T15:45:31.291Z,49.23
2023-04-20T15:50:33.180Z,49.54
2023-04-20T15:55:38.801Z,47.98
2023-04-20T16:00:41.710Z,48.52
2023-04-20T16:05:43.477Z,50.06
2023-04-20T16:10:45.255Z,49.27
2023-04-20T16:15:47.087Z,48.78
2023-04-20T16:20:48.828Z,49.97
2023-04-20T16:25:50.914Z,49.56
2023-04-20T16:30:52.670Z,50.51
2023-04-20T16:35:54.778Z,48.93
2023-04-20T16:40:56.425Z,50.27
2023-04-20T16:45:58.169Z,48.59
2023-04-20T16:50:59.879Z,48.48
2023-04-20T16:56:01.529Z,48.76
2023-04-20T17:01:03.678Z,48.69
2023-04-20T17:06:08.009Z,48.62
2023-04-20T17:11:09.892Z,49.54
2023-04-20T17:16:13.191Z,49.93
2023-04-20T17:21:14.859Z,47.64
2023-04-20T17:26:16.493Z,48.41
2023-04-20T17:31:18.159Z,46.99
2023-04-20T17:36:19.772Z,46.81
2023-04-20T17:41:21.415Z,46.70
2023-04-20T17:46:23.467Z,47.10
2023-04-20T17:51:25.201Z,48.84
2023-04-20T17:56:27.253Z,51.12
2023-04-20T18:01:30.419Z,53.38
2023-04-20T18:06:33.711Z,54.70
2023-04-20T18:11:35.718Z,55.21
2023-04-20T18:16:37.447Z,54.64
2023-04-20T18:21:39.069Z,54.04
2023-04-20T18:26:40.733Z,53.98
2023-04-20T18:31:45.506Z,52.50
2023-04-20T18:36:47.252Z,51.08
2023-04-20T18:41:48.868Z,51.63
2023-04-20T18:46:53.548Z,53.45
2023-04-20T18:51:55.281Z,54.88
2023-04-20T18:56:56.946Z,56.14
2023-04-20T19:01:59.186Z,57.08
2023-04-20T19:07:00.917Z,57.15
2023-04-20T19:12:02.793Z,58.82
2023-04-20T19:17:06.705Z,59.68
2023-04-20T19:22:08.394Z,60.06
2023-04-20T19:27:10.738Z,60.61
2023-04-20T19:32:13.022Z,61.28
2023-04-20T19:37:15.013Z,62.29
2023-04-20T19:42:18.546Z,63.81
2023-04-20T19:47:20.883Z,65.19
2023-04-20T19:52:22.671Z,66.77
2023-04-20T19:57:24.399Z,66.69
2023-04-20T20:02:26.291Z,65.01
2023-04-20T20:07:28.169Z,65.80
2023-04-20T20:12:29.924Z,65.63
2023-04-20T20:17:31.729Z,64.90
2023-04-20T20:22:33.795Z,64.39
2023-04-20T20:27:35.797Z,64.53
2023-04-20T20:32:37.545Z,64.75
2023-04-20T20:37:42.206Z,65.18
2023-04-20T20:42:45.108Z,67.55
2023-04-20T20:47:47.043Z,69.38
2023-04-20T20:52:49.458Z,70.22
2023-04-20T20:57:51.427Z,70.04
2023-04-20T21:02:53.128Z,71.64
2023-04-20T21:07:54.881Z,73.01
2023-04-20T21:12:56.454Z,72.34
2023-04-20T21:17:58.164Z,72.23
2023-04-20T21:22:59.817Z,72.25
2023-04-20T21:28:01.633Z,73.63
2023-04-20T21:33:03.364Z,73.66
2023-04-20T21:38:05.019Z,74.90
2023-04-20T21:43:06.690Z,75.45
2023-04-20T21:48:09.875Z,76.85
2023-04-20T21:53:14.056Z,77.27
2023-04-20T21:58:15.867Z,77.61
2023-04-20T22:03:17.884Z,77.71
2023-04-20T22:08:23.592Z,77.99
2023-04-20T22:13:25.322Z,77.59
2023-04-20T22:18:26.991Z,76.21
2023-04-20T22:23:28.569Z,76.33
2023-04-20T22:28:30.846Z,76.80
2023-04-20T22:33:32.471Z,77.17
2023-04-20T22:38:37.968Z,78.52
2023-04-20T22:43:41.457Z,78.95
2023-04-20T22:48:43.190Z,79.20
2023-04-20T22:53:45.019Z,79.21
2023-04-20T22:58:46.615Z,79.35
2023-04-20T23:03:48.938Z,78.97
2023-04-20T23:08:50.951Z,78.55
2023-04-20T23:13:53.318Z,78.11
2023-04-20T23:18:55.016Z,78.31
2023-04-20T23:23:57.770Z,79.20
2023-04-20T23:28:59.732Z,80.13
2023-04-20T23:34:01.371Z,80.91
2023-04-20T23:39:03.187Z,81.53
2023-04-20T23:44:04.910Z,81.78
2023-04-20T23:49:06.647Z,81.42
2023-04-20T23:54:08.246Z,81.12
2023-04-20T23:59:09.918Z,80.18
